sensor_id;sensor_type;location;lat;lon;timestamp;pressure;altitude;pressure_sealevel;temperature;humidity
34103;BME280;20381;54.498;18.206;2023-03-26T00:01:35;97948.62;;;6.39;87.39
34103;BME280;20381;54.498;18.206;2023-03-26T00:04:04;97949.73;;;6.42;87.37
34103;BME280;20381;54.498;18.206;2023-03-26T00:06:34;97940.30;;;6.41;87.32
34103;BME280;20381;54.498;18.206;2023-03-26T00:09:08;97945.09;;;6.33;87.29
34103;BME280;20381;54.498;18.206;2023-03-26T00:11:31;97945.24;;;6.30;87.51
34103;BME280;20381;54.498;18.206;2023-03-26T00:13:58;97946.00;;;6.32;87.61
34103;BME280;20381;54.498;18.206;2023-03-26T00:16:27;97944.34;;;6.31;87.62
34103;BME280;20381;54.498;18.206;2023-03-26T00:18:54;97938.41;;;6.29;87.60
34103;BME280;20381;54.498;18.206;2023-03-26T00:21:22;97929.69;;;6.30;87.63
34103;BME280;20381;54.498;18.206;2023-03-26T00:23:50;97933.40;;;6.26;87.62
34103;BME280;20381;54.498;18.206;2023-03-26T00:26:18;97942.29;;;6.22;87.62
34103;BME280;20381;54.498;18.206;2023-03-26T00:28:45;97929.48;;;6.19;87.72
34103;BME280;20381;54.498;18.206;2023-03-26T00:31:13;97935.23;;;6.17;87.73
34103;BME280;20381;54.498;18.206;2023-03-26T00:33:40;97934.84;;;6.16;87.79
34103;BME280;20381;54.498;18.206;2023-03-26T00:36:09;97929.38;;;6.13;87.86
34103;BME280;20381;54.498;18.206;2023-03-26T00:38:37;97926.34;;;6.14;87.85
34103;BME280;20381;54.498;18.206;2023-03-26T00:41:05;97919.66;;;6.10;87.93
34103;BME280;20381;54.498;18.206;2023-03-26T00:43:34;97927.97;;;6.08;87.97
34103;BME280;20381;54.498;18.206;2023-03-26T00:46:01;97926.53;;;6.11;88.08
34103;BME280;20381;54.498;18.206;2023-03-26T00:48:27;97927.64;;;6.14;88.08
34103;BME280;20381;54.498;18.206;2023-03-26T00:50:59;97920.98;;;6.17;88.13
34103;BME280;20381;54.498;18.206;2023-03-26T00:53:25;97927.75;;;6.19;88.08
34103;BME280;20381;54.498;18.206;2023-03-26T00:55:52;97921.56;;;6.22;88.18
34103;BME280;20381;54.498;18.206;2023-03-26T00:58:18;97915.44;;;6.23;88.18
34103;BME280;20381;54.498;18.206;2023-03-26T01:00:49;97916.55;;;6.26;88.26
34103;BME280;20381;54.498;18.206;2023-03-26T01:03:17;97916.91;;;6.27;88.28
34103;BME280;20381;54.498;18.206;2023-03-26T01:05:49;97913.23;;;6.31;88.23
34103;BME280;20381;54.498;18.206;2023-03-26T01:08:32;97908.95;;;6.30;88.34
34103;BME280;20381;54.498;18.206;2023-03-26T01:11:05;97908.34;;;6.34;88.35
34103;BME280;20381;54.498;18.206;2023-03-26T01:13:36;97907.51;;;6.33;88.39
34103;BME280;20381;54.498;18.206;2023-03-26T01:16:06;97905.64;;;6.35;88.51
34103;BME280;20381;54.498;18.206;2023-03-26T01:18:36;97906.20;;;6.40;88.58
34103;BME280;20381;54.498;18.206;2023-03-26T01:21:05;97901.22;;;6.44;88.49
34103;BME280;20381;54.498;18.206;2023-03-26T01:23:46;97905.47;;;6.45;88.46
34103;BME280;20381;54.498;18.206;2023-03-26T01:31:59;97901.22;;;6.44;88.57
34103;BME280;20381;54.498;18.206;2023-03-26T01:37:07;97894.17;;;6.46;88.58
34103;BME280;20381;54.498;18.206;2023-03-26T01:39:42;97896.69;;;6.48;88.57
34103;BME280;20381;54.498;18.206;2023-03-26T01:42:18;97895.11;;;6.45;88.51
34103;BME280;20381;54.498;18.206;2023-03-26T01:44:59;97895.11;;;6.45;88.55
34103;BME280;20381;54.498;18.206;2023-03-26T01:47:26;97898.45;;;6.47;88.63
34103;BME280;20381;54.498;18.206;2023-03-26T01:49:53;97893.44;;;6.52;88.65
34103;BME280;20381;54.498;18.206;2023-03-26T01:52:22;97892.14;;;6.52;88.63
34103;BME280;20381;54.498;18.206;2023-03-26T01:54:51;97889.27;;;6.49;88.57
34103;BME280;20381;54.498;18.206;2023-03-26T01:57:32;97882.70;;;6.50;88.68
34103;BME280;20381;54.498;18.206;2023-03-26T02:00:17;97878.81;;;6.50;88.69
34103;BME280;20381;54.498;18.206;2023-03-26T02:05:38;97878.27;;;6.53;88.75
34103;BME280;20381;54.498;18.206;2023-03-26T02:08:11;97871.79;;;6.53;88.78
34103;BME280;20381;54.498;18.206;2023-03-26T02:10:40;97870.49;;;6.53;88.79
34103;BME280;20381;54.498;18.206;2023-03-26T02:13:10;97873.80;;;6.55;88.94
34103;BME280;20381;54.498;18.206;2023-03-26T02:15:38;97871.95;;;6.57;88.87
34103;BME280;20381;54.498;18.206;2023-03-26T02:18:05;97864.17;;;6.57;88.82
34103;BME280;20381;54.498;18.206;2023-03-26T02:20:31;97869.37;;;6.57;88.98
34103;BME280;20381;54.498;18.206;2023-03-26T02:22:57;97866.59;;;6.60;88.99
34103;BME280;20381;54.498;18.206;2023-03-26T02:25:25;97863.91;;;6.61;88.91
34103;BME280;20381;54.498;18.206;2023-03-26T02:27:51;97861.39;;;6.60;88.97
34103;BME280;20381;54.498;18.206;2023-03-26T02:30:23;97860.46;;;6.61;89.00
34103;BME280;20381;54.498;18.206;2023-03-26T02:32:52;97859.44;;;6.63;89.19
34103;BME280;20381;54.498;18.206;2023-03-26T02:35:20;97861.69;;;6.69;89.25
34103;BME280;20381;54.498;18.206;2023-03-26T02:37:47;97859.92;;;6.70;89.23
34103;BME280;20381;54.498;18.206;2023-03-26T02:40:16;97859.17;;;6.68;89.20
34103;BME280;20381;54.498;18.206;2023-03-26T02:42:43;97859.17;;;6.68;89.27
34103;BME280;20381;54.498;18.206;2023-03-26T02:45:10;97854.34;;;6.69;89.17
34103;BME280;20381;54.498;18.206;2023-03-26T02:47:36;97850.64;;;6.66;89.14
34103;BME280;20381;54.498;18.206;2023-03-26T02:50:03;97849.93;;;6.64;89.18
34103;BME280;20381;54.498;18.206;2023-03-26T02:52:30;97850.64;;;6.66;89.27
34103;BME280;20381;54.498;18.206;2023-03-26T02:54:56;97849.36;;;6.73;89.46
34103;BME280;20381;54.498;18.206;2023-03-26T02:57:23;97850.10;;;6.75;89.47
34103;BME280;20381;54.498;18.206;2023-03-26T02:59:51;97843.42;;;6.78;89.42
34103;BME280;20381;54.498;18.206;2023-03-26T03:02:18;97844.53;;;6.81;89.50
34103;BME280;20381;54.498;18.206;2023-03-26T03:04:45;97845.16;;;6.85;89.50
34103;BME280;20381;54.498;18.206;2023-03-26T03:07:11;97844.34;;;6.84;89.34
34103;BME280;20381;54.498;18.206;2023-03-26T03:09:39;97845.83;;;6.81;89.37
34103;BME280;20381;54.498;18.206;2023-03-26T03:12:06;97847.12;;;6.81;89.49
34103;BME280;20381;54.498;18.206;2023-03-26T03:14:32;97844.53;;;6.81;89.54
34103;BME280;20381;54.498;18.206;2023-03-26T03:16:59;97842.13;;;6.78;89.51
34103;BME280;20381;54.498;18.206;2023-03-26T03:19:25;97837.30;;;6.79;89.68
34103;BME280;20381;54.498;18.206;2023-03-26T03:21:52;97836.20;;;6.76;89.55
34103;BME280;20381;54.498;18.206;2023-03-26T03:24:18;97831.01;;;6.76;89.59
34103;BME280;20381;54.498;18.206;2023-03-26T03:26:44;97833.80;;;6.73;89.66
34103;BME280;20381;54.498;18.206;2023-03-26T03:29:11;97831.39;;;6.70;89.68
34103;BME280;20381;54.498;18.206;2023-03-26T03:31:37;97827.14;;;6.62;89.75
34103;BME280;20381;54.498;18.206;2023-03-26T03:34:04;97833.44;;;6.50;89.80
34103;BME280;20381;54.498;18.206;2023-03-26T03:36:30;97830.21;;;6.47;89.98
34103;BME280;20381;54.498;18.206;2023-03-26T03:38:58;97830.67;;;6.39;90.26
34103;BME280;20381;54.498;18.206;2023-03-26T03:41:26;97835.48;;;6.31;90.59
34103;BME280;20381;54.498;18.206;2023-03-26T03:43:52;97838.44;;;6.25;90.61
34103;BME280;20381;54.498;18.206;2023-03-26T03:46:19;97836.19;;;6.19;90.78
34103;BME280;20381;54.498;18.206;2023-03-26T03:48:45;97826.48;;;6.15;90.85
34103;BME280;20381;54.498;18.206;2023-03-26T03:51:13;97832.88;;;6.17;90.99
34103;BME280;20381;54.498;18.206;2023-03-26T03:53:40;97830.64;;;6.18;90.97
34103;BME280;20381;54.498;18.206;2023-03-26T03:56:07;97827.77;;;6.15;90.95
34103;BME280;20381;54.498;18.206;2023-03-26T03:58:35;97827.70;;;6.17;91.18
34103;BME280;20381;54.498;18.206;2023-03-26T04:01:01;97830.29;;;6.17;91.08
34103;BME280;20381;54.498;18.206;2023-03-26T04:03:29;97826.95;;;6.15;91.20
34103;BME280;20381;54.498;18.206;2023-03-26T04:05:55;97823.79;;;6.10;91.29
34103;BME280;20381;54.498;18.206;2023-03-26T04:08:23;97823.22;;;6.04;91.38
34103;BME280;20381;54.498;18.206;2023-03-26T04:10:49;97828.41;;;6.04;91.40
34103;BME280;20381;54.498;18.206;2023-03-26T04:13:16;97833.77;;;6.01;91.87
34103;BME280;20381;54.498;18.206;2023-03-26T04:15:43;97830.25;;;5.95;91.84
34103;BME280;20381;54.498;18.206;2023-03-26T04:18:10;97830.80;;;5.93;91.85
34103;BME280;20381;54.498;18.206;2023-03-26T04:20:38;97825.22;;;5.92;91.80
34103;BME280;20381;54.498;18.206;2023-03-26T04:23:07;97823.92;;;5.92;91.86
34103;BME280;20381;54.498;18.206;2023-03-26T04:25:35;97826.36;;;5.95;91.82
34103;BME280;20381;54.498;18.206;2023-03-26T04:28:04;97825.06;;;5.95;91.82
34103;BME280;20381;54.498;18.206;2023-03-26T04:30:34;97827.11;;;5.97;91.81
34103;BME280;20381;54.498;18.206;2023-03-26T04:33:03;97827.87;;;5.99;91.91
34103;BME280;20381;54.498;18.206;2023-03-26T04:35:32;97827.11;;;5.97;91.86
34103;BME280;20381;54.498;18.206;2023-03-26T04:38:02;97828.41;;;5.97;91.90
34103;BME280;20381;54.498;18.206;2023-03-26T04:40:32;97823.77;;;5.95;91.72
34103;BME280;20381;54.498;18.206;2023-03-26T04:43:00;97826.29;;;5.97;91.82
34103;BME280;20381;54.498;18.206;2023-03-26T04:45:31;97825.82;;;5.97;91.92
34103;BME280;20381;54.498;18.206;2023-03-26T04:47:57;97826.57;;;5.99;92.03
34103;BME280;20381;54.498;18.206;2023-03-26T04:50:25;97820.45;;;6.00;91.92
34103;BME280;20381;54.498;18.206;2023-03-26T04:52:52;97819.80;;;6.04;91.94
34103;BME280;20381;54.498;18.206;2023-03-26T04:55:31;97817.14;;;6.05;91.94
34103;BME280;20381;54.498;18.206;2023-03-26T04:57:57;97818.80;;;6.07;91.89
34103;BME280;20381;54.498;18.206;2023-03-26T05:00:28;97816.39;;;6.03;91.80
34103;BME280;20381;54.498;18.206;2023-03-26T05:02:55;97816.39;;;6.03;91.79
34103;BME280;20381;54.498;18.206;2023-03-26T05:05:23;97814.36;;;6.09;92.01
34103;BME280;20381;54.498;18.206;2023-03-26T05:07:50;97809.16;;;6.16;92.17
34103;BME280;20381;54.498;18.206;2023-03-26T05:10:16;97807.80;;;6.17;91.88
34103;BME280;20381;54.498;18.206;2023-03-26T05:12:44;97804.38;;;6.17;91.91
34103;BME280;20381;54.498;18.206;2023-03-26T05:15:16;97816.03;;;6.17;92.00
34103;BME280;20381;54.498;18.206;2023-03-26T05:17:41;97808.83;;;6.22;92.11
34103;BME280;20381;54.498;18.206;2023-03-26T05:20:17;97812.51;;;6.18;91.89
34103;BME280;20381;54.498;18.206;2023-03-26T05:22:44;97811.13;;;6.19;91.99
34103;BME280;20381;54.498;18.206;2023-03-26T05:25:11;97808.44;;;6.21;92.06
34103;BME280;20381;54.498;18.206;2023-03-26T05:27:37;97810.84;;;6.24;92.11
34103;BME280;20381;54.498;18.206;2023-03-26T05:30:05;97807.52;;;6.29;92.25
34103;BME280;20381;54.498;18.206;2023-03-26T05:32:32;97810.11;;;6.29;92.10
34103;BME280;20381;54.498;18.206;2023-03-26T05:35:01;97813.15;;;6.21;91.99
34103;BME280;20381;54.498;18.206;2023-03-26T05:37:29;97814.84;;;6.22;92.17
34103;BME280;20381;54.498;18.206;2023-03-26T05:39:57;97806.23;;;6.22;92.35
34103;BME280;20381;54.498;18.206;2023-03-26T05:42:25;97812.87;;;6.19;92.30
34103;BME280;20381;54.498;18.206;2023-03-26T05:44:51;97807.69;;;6.19;92.81
34103;BME280;20381;54.498;18.206;2023-03-26T05:47:17;97811.21;;;6.18;92.43
34103;BME280;20381;54.498;18.206;2023-03-26T05:49:43;97814.92;;;6.14;92.33
34103;BME280;20381;54.498;18.206;2023-03-26T05:52:12;97813.98;;;6.15;92.51
34103;BME280;20381;54.498;18.206;2023-03-26T05:54:41;97817.69;;;6.18;92.68
34103;BME280;20381;54.498;18.206;2023-03-26T05:57:13;97810.10;;;6.15;92.67
34103;BME280;20381;54.498;18.206;2023-03-26T05:59:40;97812.04;;;6.18;92.71
34103;BME280;20381;54.498;18.206;2023-03-26T06:02:08;97812.71;;;6.22;92.71
34103;BME280;20381;54.498;18.206;2023-03-26T06:04:35;97807.23;;;6.26;92.87
34103;BME280;20381;54.498;18.206;2023-03-26T06:07:03;97807.63;;;6.27;92.61
34103;BME280;20381;54.498;18.206;2023-03-26T06:09:29;97814.74;;;6.31;92.62
34103;BME280;20381;54.498;18.206;2023-03-26T06:11:56;97813.42;;;6.38;92.73
34103;BME280;20381;54.498;18.206;2023-03-26T06:14:23;97816.02;;;6.38;92.83
34103;BME280;20381;54.498;18.206;2023-03-26T06:16:49;97815.66;;;6.37;92.83
34103;BME280;20381;54.498;18.206;2023-03-26T06:19:15;97814.17;;;6.40;92.88
34103;BME280;20381;54.498;18.206;2023-03-26T06:21:41;97819.17;;;6.43;92.74
34103;BME280;20381;54.498;18.206;2023-03-26T06:24:07;97820.48;;;6.50;93.06
34103;BME280;20381;54.498;18.206;2023-03-26T06:26:36;97814.53;;;6.63;92.88
34103;BME280;20381;54.498;18.206;2023-03-26T06:29:03;97814.14;;;6.69;92.87
34103;BME280;20381;54.498;18.206;2023-03-26T06:31:32;97817.92;;;6.78;92.91
34103;BME280;20381;54.498;18.206;2023-03-26T06:33:59;97819.74;;;6.97;93.24
34103;BME280;20381;54.498;18.206;2023-03-26T06:36:25;97827.31;;;7.14;93.03
34103;BME280;20381;54.498;18.206;2023-03-26T06:38:52;97828.17;;;7.35;93.35
34103;BME280;20381;54.498;18.206;2023-03-26T06:41:18;97831.33;;;7.53;93.30
34103;BME280;20381;54.498;18.206;2023-03-26T06:43:45;97827.34;;;7.74;93.35
34103;BME280;20381;54.498;18.206;2023-03-26T06:46:12;97826.69;;;7.91;93.03
34103;BME280;20381;54.498;18.206;2023-03-26T06:48:40;97834.04;;;8.04;92.96
34103;BME280;20381;54.498;18.206;2023-03-26T06:51:08;97825.19;;;7.94;92.13
34103;BME280;20381;54.498;18.206;2023-03-26T06:53:35;97825.95;;;7.89;92.17
34103;BME280;20381;54.498;18.206;2023-03-26T06:56:01;97827.45;;;7.85;92.17
34103;BME280;20381;54.498;18.206;2023-03-26T06:58:28;97831.20;;;7.81;92.19
34103;BME280;20381;54.498;18.206;2023-03-26T07:00:55;97830.14;;;7.71;91.94
34103;BME280;20381;54.498;18.206;2023-03-26T07:03:22;97831.98;;;7.56;92.11
34103;BME280;20381;54.498;18.206;2023-03-26T07:05:48;97827.68;;;7.43;92.19
34103;BME280;20381;54.498;18.206;2023-03-26T07:08:15;97829.94;;;7.34;92.48
34103;BME280;20381;54.498;18.206;2023-03-26T07:10:41;97826.95;;;7.33;92.92
34103;BME280;20381;54.498;18.206;2023-03-26T07:13:07;97829.73;;;7.37;93.05
34103;BME280;20381;54.498;18.206;2023-03-26T07:15:34;97826.38;;;7.43;93.12
34103;BME280;20381;54.498;18.206;2023-03-26T07:18:02;97829.96;;;7.47;93.23
34103;BME280;20381;54.498;18.206;2023-03-26T07:20:33;97831.33;;;7.53;93.07
34103;BME280;20381;54.498;18.206;2023-03-26T07:23:01;97837.68;;;7.42;92.65
34103;BME280;20381;54.498;18.206;2023-03-26T07:25:28;97831.39;;;7.38;93.01
34103;BME280;20381;54.498;18.206;2023-03-26T07:31:07;97836.98;;;7.32;93.15
34103;BME280;20381;54.498;18.206;2023-03-26T07:36:12;97845.03;;;7.95;93.47
34103;BME280;20381;54.498;18.206;2023-03-26T07:44:08;97832.48;;;8.84;92.91
34103;BME280;20381;54.498;18.206;2023-03-26T07:46:33;97831.84;;;8.74;92.01
34103;BME280;20381;54.498;18.206;2023-03-26T07:49:04;97829.67;;;8.68;92.63
34103;BME280;20381;54.498;18.206;2023-03-26T07:51:32;97838.69;;;8.57;91.91
34103;BME280;20381;54.498;18.206;2023-03-26T07:53:59;97837.48;;;8.43;92.04
34103;BME280;20381;54.498;18.206;2023-03-26T07:56:44;97839.16;;;8.44;92.55
34103;BME280;20381;54.498;18.206;2023-03-26T07:59:18;97842.99;;;8.51;93.12
34103;BME280;20381;54.498;18.206;2023-03-26T08:04:26;97840.16;;;8.80;93.15
34103;BME280;20381;54.498;18.206;2023-03-26T08:06:59;97843.06;;;8.88;92.53
34103;BME280;20381;54.498;18.206;2023-03-26T08:15:47;97850.35;;;8.32;91.47
34103;BME280;20381;54.498;18.206;2023-03-26T08:21:10;97847.72;;;8.64;92.68
34103;BME280;20381;54.498;18.206;2023-03-26T08:29:50;97858.98;;;8.52;91.24
34103;BME280;20381;54.498;18.206;2023-03-26T08:32:18;97858.59;;;8.51;92.23
34103;BME280;20381;54.498;18.206;2023-03-26T08:34:47;97852.80;;;8.79;92.91
34103;BME280;20381;54.498;18.206;2023-03-26T08:37:13;97861.55;;;8.96;92.17
34103;BME280;20381;54.498;18.206;2023-03-26T08:39:39;97857.14;;;9.09;92.52
34103;BME280;20381;54.498;18.206;2023-03-26T08:56:45;97870.55;;;9.10;92.13
34103;BME280;20381;54.498;18.206;2023-03-26T09:02:23;97871.88;;;8.85;91.52
34103;BME280;20381;54.498;18.206;2023-03-26T09:05:20;97867.63;;;8.84;92.23
34103;BME280;20381;54.498;18.206;2023-03-26T09:10:35;97866.16;;;9.11;91.33
34103;BME280;20381;54.498;18.206;2023-03-26T09:16:02;97870.97;;;9.41;92.40
34103;BME280;20381;54.498;18.206;2023-03-26T09:18:59;97872.09;;;9.55;91.95
34103;BME280;20381;54.498;18.206;2023-03-26T09:35:41;97882.05;;;9.13;89.61
34103;BME280;20381;54.498;18.206;2023-03-26T09:41:09;97890.64;;;8.64;91.12
34103;BME280;20381;54.498;18.206;2023-03-26T09:43:26;97886.39;;;8.63;91.32
34103;BME280;20381;54.498;18.206;2023-03-26T09:48:54;97896.50;;;8.99;90.90
34103;BME280;20381;54.498;18.206;2023-03-26T09:54:20;97895.12;;;8.88;90.72
34103;BME280;20381;54.498;18.206;2023-03-26T10:05:18;97906.47;;;9.24;90.99
34103;BME280;20381;54.498;18.206;2023-03-26T10:08:04;97905.11;;;9.31;88.91
34103;BME280;20381;54.498;18.206;2023-03-26T10:10:41;97905.17;;;9.24;89.45
34103;BME280;20381;54.498;18.206;2023-03-26T10:18:55;97912.98;;;9.05;88.75
34103;BME280;20381;54.498;18.206;2023-03-26T10:21:23;97912.92;;;9.31;90.42
34103;BME280;20381;54.498;18.206;2023-03-26T10:26:50;97874.08;;;12.52;88.64
34103;BME280;20381;54.498;18.206;2023-03-26T10:40:22;97907.80;;;11.60;84.48
34103;BME280;20381;54.498;18.206;2023-03-26T10:45:44;97912.29;;;10.92;87.29
34103;BME280;20381;54.498;18.206;2023-03-26T10:56:43;97926.65;;;9.70;88.01
34103;BME280;20381;54.498;18.206;2023-03-26T10:59:13;97922.69;;;9.58;88.66
34103;BME280;20381;54.498;18.206;2023-03-26T11:01:51;97923.13;;;9.34;88.36
34103;BME280;20381;54.498;18.206;2023-03-26T11:07:06;97927.91;;;8.78;87.24
34103;BME280;20381;54.498;18.206;2023-03-26T11:15:28;97937.87;;;8.13;88.30
34103;BME280;20381;54.498;18.206;2023-03-26T11:20:50;97928.77;;;8.25;89.26
34103;BME280;20381;54.498;18.206;2023-03-26T11:23:32;97929.21;;;8.52;89.92
34103;BME280;20381;54.498;18.206;2023-03-26T11:31:30;97908.28;;;13.82;90.51
34103;BME280;20381;54.498;18.206;2023-03-26T11:33:56;97906.42;;;13.34;86.11
34103;BME280;20381;54.498;18.206;2023-03-26T11:36:29;97918.81;;;12.70;86.68
34103;BME280;20381;54.498;18.206;2023-03-26T11:38:56;97923.92;;;12.09;86.71
34103;BME280;20381;54.498;18.206;2023-03-26T11:41:27;97927.97;;;11.64;87.09
34103;BME280;20381;54.498;18.206;2023-03-26T11:46:51;97934.87;;;10.41;85.07
34103;BME280;20381;54.498;18.206;2023-03-26T11:49:20;97937.36;;;9.78;86.26
34103;BME280;20381;54.498;18.206;2023-03-26T11:51:48;97940.83;;;9.66;85.61
34103;BME280;20381;54.498;18.206;2023-03-26T11:54:14;97936.27;;;9.38;86.29
34103;BME280;20381;54.498;18.206;2023-03-26T11:59:35;97937.59;;;9.07;86.89
34103;BME280;20381;54.498;18.206;2023-03-26T12:04:40;97944.55;;;8.62;86.48
34103;BME280;20381;54.498;18.206;2023-03-26T12:09:51;97945.41;;;8.43;87.72
34103;BME280;20381;54.498;18.206;2023-03-26T12:12:17;97948.30;;;8.58;87.88
34103;BME280;20381;54.498;18.206;2023-03-26T12:14:44;97945.91;;;8.55;87.20
34103;BME280;20381;54.498;18.206;2023-03-26T12:17:12;97950.17;;;8.56;87.72
34103;BME280;20381;54.498;18.206;2023-03-26T12:19:41;97940.59;;;8.57;87.54
34103;BME280;20381;54.498;18.206;2023-03-26T12:27:30;97953.97;;;8.70;87.86
34103;BME280;20381;54.498;18.206;2023-03-26T12:30:19;97955.38;;;8.94;86.46
34103;BME280;20381;54.498;18.206;2023-03-26T12:32:48;97957.58;;;8.88;86.41
34103;BME280;20381;54.498;18.206;2023-03-26T12:35:23;97963.60;;;8.76;84.21
34103;BME280;20381;54.498;18.206;2023-03-26T12:37:54;97963.30;;;8.55;85.64
34103;BME280;20381;54.498;18.206;2023-03-26T12:42:58;97970.45;;;8.11;85.23
34103;BME280;20381;54.498;18.206;2023-03-26T12:45:40;97978.39;;;7.95;86.28
34103;BME280;20381;54.498;18.206;2023-03-26T12:48:08;97980.56;;;7.89;85.60
34103;BME280;20381;54.498;18.206;2023-03-26T13:01:37;97992.85;;;8.66;86.29
34103;BME280;20381;54.498;18.206;2023-03-26T13:06:43;97988.16;;;8.84;85.12
34103;BME280;20381;54.498;18.206;2023-03-26T13:09:36;97987.13;;;8.87;84.57
34103;BME280;20381;54.498;18.206;2023-03-26T13:12:28;97983.19;;;8.68;81.76
34103;BME280;20381;54.498;18.206;2023-03-26T13:14:57;97985.14;;;8.52;82.27
34103;BME280;20381;54.498;18.206;2023-03-26T13:20:55;97991.24;;;8.11;82.75
34103;BME280;20381;54.498;18.206;2023-03-26T13:29:39;97993.69;;;8.07;83.24
34103;BME280;20381;54.498;18.206;2023-03-26T13:32:44;97988.55;;;7.93;83.43
34103;BME280;20381;54.498;18.206;2023-03-26T13:35:21;97991.16;;;7.85;82.72
34103;BME280;20381;54.498;18.206;2023-03-26T13:46:05;97991.59;;;8.85;82.43
34103;BME280;20381;54.498;18.206;2023-03-26T13:48:47;97994.41;;;8.82;81.38
34103;BME280;20381;54.498;18.206;2023-03-26T13:51:23;97991.02;;;8.61;80.83
34103;BME280;20381;54.498;18.206;2023-03-26T13:54:08;97992.81;;;8.41;80.91
34103;BME280;20381;54.498;18.206;2023-03-26T13:56:46;97988.39;;;8.48;82.07
34103;BME280;20381;54.498;18.206;2023-03-26T13:59:18;97990.55;;;8.49;80.27
34103;BME280;20381;54.498;18.206;2023-03-26T14:02:04;97988.45;;;8.54;78.93
34103;BME280;20381;54.498;18.206;2023-03-26T14:04:35;97989.39;;;8.53;80.78
34103;BME280;20381;54.498;18.206;2023-03-26T14:07:19;97983.13;;;8.43;79.35
34103;BME280;20381;54.498;18.206;2023-03-26T14:09:59;97990.39;;;8.38;81.29
34103;BME280;20381;54.498;18.206;2023-03-26T14:12:44;97986.67;;;8.42;80.98
34103;BME280;20381;54.498;18.206;2023-03-26T14:15:16;97992.50;;;8.45;80.90
34103;BME280;20381;54.498;18.206;2023-03-26T14:27:00;97988.03;;;8.20;81.06
34103;BME280;20381;54.498;18.206;2023-03-26T14:32:39;97977.82;;;8.24;81.51
34103;BME280;20381;54.498;18.206;2023-03-26T14:35:27;97975.17;;;8.32;80.88
34103;BME280;20381;54.498;18.206;2023-03-26T14:37:51;97976.19;;;8.16;79.93
34103;BME280;20381;54.498;18.206;2023-03-26T14:40:40;97976.74;;;8.14;80.83
34103;BME280;20381;54.498;18.206;2023-03-26T14:43:33;97968.09;;;8.21;79.05
34103;BME280;20381;54.498;18.206;2023-03-26T14:46:06;97978.77;;;8.23;80.32
34103;BME280;20381;54.498;18.206;2023-03-26T14:54:18;97976.25;;;8.02;78.97
34103;BME280;20381;54.498;18.206;2023-03-26T15:02:44;97989.26;;;7.95;77.54
34103;BME280;20381;54.498;18.206;2023-03-26T15:08:12;97994.43;;;7.75;79.26
34103;BME280;20381;54.498;18.206;2023-03-26T15:52:16;98045.52;;;5.82;78.79
34103;BME280;20381;54.498;18.206;2023-03-26T15:55:12;98040.85;;;5.73;78.06
34103;BME280;20381;54.498;18.206;2023-03-26T15:57:43;98041.55;;;5.68;78.59
34103;BME280;20381;54.498;18.206;2023-03-26T16:00:24;98040.26;;;5.68;77.30
34103;BME280;20381;54.498;18.206;2023-03-26T16:03:28;98040.66;;;5.60;78.64
34103;BME280;20381;54.498;18.206;2023-03-26T16:06:36;98046.88;;;5.57;79.01
34103;BME280;20381;54.498;18.206;2023-03-26T16:11:43;98047.51;;;5.45;77.95
34103;BME280;20381;54.498;18.206;2023-03-26T16:14:21;98058.05;;;5.33;78.02
34103;BME280;20381;54.498;18.206;2023-03-26T16:16:58;98040.57;;;5.30;78.75
34103;BME280;20381;54.498;18.206;2023-03-26T16:19:33;98059.14;;;5.21;78.21
34103;BME280;20381;54.498;18.206;2023-03-26T16:22:08;98056.55;;;5.21;79.18
34103;BME280;20381;54.498;18.206;2023-03-26T16:24:43;98050.25;;;5.18;78.69
34103;BME280;20381;54.498;18.206;2023-03-26T16:27:24;98054.45;;;5.11;78.48
34103;BME280;20381;54.498;18.206;2023-03-26T16:32:40;98062.02;;;4.99;77.83
34103;BME280;20381;54.498;18.206;2023-03-26T16:38:03;98059.37;;;4.83;78.07
34103;BME280;20381;54.498;18.206;2023-03-26T16:56:29;98098.17;;;4.20;76.60
34103;BME280;20381;54.498;18.206;2023-03-26T16:59:05;98106.94;;;4.08;77.34
34103;BME280;20381;54.498;18.206;2023-03-26T17:04:22;98104.85;;;3.97;77.74
34103;BME280;20381;54.498;18.206;2023-03-26T17:09:42;98105.11;;;3.82;77.92
34103;BME280;20381;54.498;18.206;2023-03-26T17:15:05;98111.13;;;3.72;78.29
34103;BME280;20381;54.498;18.206;2023-03-26T17:42:30;98111.27;;;3.69;79.04
34103;BME280;20381;54.498;18.206;2023-03-26T17:45:12;98104.59;;;3.65;78.66
34103;BME280;20381;54.498;18.206;2023-03-26T17:47:51;98105.36;;;3.67;78.94
34103;BME280;20381;54.498;18.206;2023-03-26T17:50:23;98101.03;;;3.68;78.82
34103;BME280;20381;54.498;18.206;2023-03-26T17:53:01;98110.76;;;3.71;79.20
34103;BME280;20381;54.498;18.206;2023-03-26T17:55:30;98116.55;;;3.76;79.22
34103;BME280;20381;54.498;18.206;2023-03-26T17:58:00;98118.53;;;3.80;79.21
34103;BME280;20381;54.498;18.206;2023-03-26T18:00:33;98119.77;;;3.81;79.21
34103;BME280;20381;54.498;18.206;2023-03-26T18:03:03;98124.11;;;3.81;79.50
34103;BME280;20381;54.498;18.206;2023-03-26T18:05:32;98122.81;;;3.81;79.34
34103;BME280;20381;54.498;18.206;2023-03-26T18:16:44;98123.68;;;3.61;79.37
34103;BME280;20381;54.498;18.206;2023-03-26T18:19:17;98120.49;;;3.56;79.32
34103;BME280;20381;54.498;18.206;2023-03-26T18:21:47;98121.38;;;3.55;79.57
34103;BME280;20381;54.498;18.206;2023-03-26T18:24:21;98118.66;;;3.58;79.79
34103;BME280;20381;54.498;18.206;2023-03-26T18:26:56;98119.44;;;3.60;79.77
34103;BME280;20381;54.498;18.206;2023-03-26T18:34:44;98122.44;;;3.51;79.84
34103;BME280;20381;54.498;18.206;2023-03-26T18:37:15;98119.35;;;3.43;79.78
34103;BME280;20381;54.498;18.206;2023-03-26T18:40:06;98114.60;;;3.33;79.86
34103;BME280;20381;54.498;18.206;2023-03-26T18:42:31;98114.09;;;3.25;79.71
34103;BME280;20381;54.498;18.206;2023-03-26T18:45:02;98121.23;;;3.19;80.10
34103;BME280;20381;54.498;18.206;2023-03-26T18:47:29;98117.05;;;3.16;80.16
34103;BME280;20381;54.498;18.206;2023-03-26T18:49:57;98120.03;;;3.07;80.06
34103;BME280;20381;54.498;18.206;2023-03-26T18:52:26;98110.89;;;3.00;80.19